createdAt,value
2022-12-06T00:00:38.681Z,62.37
2022-12-06T00:05:44.698Z,62.62
2022-12-06T00:10:47.963Z,62.50
2022-12-06T00:15:49.783Z,62.53
2022-12-06T00:20:51.641Z,62.46
2022-12-06T00:25:53.493Z,62.23
2022-12-06T00:31:00.363Z,62.23
2022-12-06T00:36:08.283Z,62.64
2022-12-06T00:41:13.647Z,62.13
2022-12-06T00:46:18.747Z,61.94
2022-12-06T00:51:22.005Z,62.10
2022-12-06T00:56:23.936Z,62.02
2022-12-06T01:01:28.832Z,62.07
2022-12-06T01:06:33.371Z,62.33
2022-12-06T01:11:35.351Z,62.20
2022-12-06T01:16:37.278Z,61.76
2022-12-06T01:21:39.179Z,62.07
2022-12-06T01:26:41.047Z,62.21
2022-12-06T01:31:42.973Z,62.39
2022-12-06T01:36:45.213Z,62.42
2022-12-06T01:41:57.348Z,62.34
2022-12-06T01:46:59.416Z,62.23
2022-12-06T01:52:09.802Z,62.09
2022-12-06T01:57:15.649Z,62.37
2022-12-06T02:02:17.625Z,62.43
2022-12-06T02:07:22.337Z,62.90
2022-12-06T02:12:24.151Z,63.17
2022-12-06T02:17:54.322Z,62.83
2022-12-06T02:23:11.266Z,62.81
2022-12-06T02:28:31.589Z,63.03
2022-12-06T02:33:46.935Z,63.16
2022-12-06T02:38:54.034Z,62.89
2022-12-06T02:44:00.012Z,62.75
2022-12-06T02:49:04.822Z,62.96
2022-12-06T02:54:10.124Z,62.69
2022-12-06T02:59:11.947Z,62.76
2022-12-06T03:04:49.644Z,62.78
2022-12-06T03:10:28.745Z,62.87
2022-12-06T03:15:42.339Z,62.78
2022-12-06T03:20:58.925Z,63.18
2022-12-06T03:26:03.225Z,62.89
2022-12-06T03:31:10.864Z,63.13
2022-12-06T03:36:14.536Z,62.61
2022-12-06T03:41:18.717Z,62.55
2022-12-06T03:46:27.999Z,62.76
2022-12-06T03:51:32.664Z,62.70
2022-12-06T03:56:36.926Z,62.95
2022-12-06T04:01:39.941Z,62.83
2022-12-06T04:06:41.836Z,62.81
2022-12-06T04:11:43.671Z,62.78
2022-12-06T04:17:03.787Z,62.70
2022-12-06T04:22:24.508Z,62.88
2022-12-06T04:27:44.663Z,63.61
2022-12-06T04:33:05.240Z,63.51
2022-12-06T04:38:25.855Z,63.45
2022-12-06T04:43:42.985Z,63.33
2022-12-06T04:48:44.789Z,63.37
2022-12-06T04:53:46.603Z,63.45
2022-12-06T04:58:48.418Z,63.38
2022-12-06T05:03:50.334Z,63.01
2022-12-06T05:08:52.423Z,62.87
2022-12-06T05:13:54.317Z,63.26
2022-12-06T05:18:56.161Z,63.73
2022-12-06T05:23:58.700Z,63.76
2022-12-06T05:29:00.586Z,63.55
2022-12-06T05:34:02.422Z,64.03
2022-12-06T05:39:04.394Z,64.10
2022-12-06T05:44:06.226Z,63.93
2022-12-06T05:49:08.088Z,63.37
2022-12-06T05:54:10.083Z,63.83
2022-12-06T05:59:11.996Z,63.88
2022-12-06T06:04:13.789Z,63.80
2022-12-06T06:09:15.567Z,63.65
2022-12-06T06:14:17.422Z,63.51
2022-12-06T06:19:19.411Z,63.81
2022-12-06T06:24:21.246Z,63.71
2022-12-06T06:29:23.254Z,63.64
2022-12-06T06:34:26.003Z,63.43
2022-12-06T06:39:27.879Z,64.09
2022-12-06T06:44:29.687Z,63.66
2022-12-06T06:49:31.910Z,63.25
2022-12-06T06:54:33.733Z,63.76
2022-12-06T06:59:35.575Z,64.05
2022-12-06T07:04:37.440Z,64.01
2022-12-06T07:09:40.155Z,63.96
2022-12-06T07:14:42.033Z,63.52
2022-12-06T07:19:43.831Z,63.56
2022-12-06T07:24:52.079Z,63.32
2022-12-06T07:29:54.299Z,62.80
2022-12-06T07:34:56.117Z,62.98
2022-12-06T07:39:58.237Z,63.49
2022-12-06T07:45:04.613Z,63.38
2022-12-06T07:50:17.600Z,63.75
2022-12-06T07:55:20.365Z,63.71
2022-12-06T08:00:22.262Z,63.74
2022-12-06T08:05:24.112Z,63.96
2022-12-06T08:10:25.902Z,64.07
2022-12-06T08:15:27.721Z,64.20
2022-12-06T08:20:29.612Z,64.61
2022-12-06T08:25:31.448Z,65.07
2022-12-06T08:30:33.643Z,65.23
2022-12-06T08:35:38.380Z,65.10
2022-12-06T08:40:40.255Z,65.08
2022-12-06T08:45:42.136Z,64.58
2022-12-06T08:50:44.081Z,65.32
2022-12-06T08:56:01.889Z,65.31
2022-12-06T09:01:19.584Z,64.57
2022-12-06T09:06:22.243Z,64.27
2022-12-06T09:11:25.595Z,64.36
2022-12-06T09:16:27.659Z,63.80
2022-12-06T09:21:30.716Z,63.72
2022-12-06T09:26:32.719Z,63.42
2022-12-06T09:31:36.025Z,63.34
2022-12-06T09:36:44.216Z,63.52
2022-12-06T09:42:12.470Z,63.17
2022-12-06T09:47:42.442Z,63.05
2022-12-06T09:52:59.932Z,63.61
2022-12-06T09:58:16.813Z,63.38
2022-12-06T10:03:29.774Z,63.24
2022-12-06T10:08:56.121Z,63.42
2022-12-06T10:14:21.496Z,63.28
2022-12-06T10:19:53.957Z,63.04
2022-12-06T10:25:31.743Z,62.89
2022-12-06T10:30:40.566Z,62.54
2022-12-06T10:36:03.442Z,62.84
2022-12-06T10:41:21.510Z,63.30
2022-12-06T10:47:03.814Z,63.31
2022-12-06T10:52:39.599Z,63.00
2022-12-06T10:57:44.884Z,63.04
2022-12-06T11:03:08.271Z,63.12
2022-12-06T11:08:21.854Z,62.97
2022-12-06T11:13:34.438Z,62.79
2022-12-06T11:18:38.180Z,62.64
2022-12-06T11:24:06.779Z,62.67
2022-12-06T11:29:14.273Z,62.31
2022-12-06T11:34:22.840Z,62.37
2022-12-06T11:39:24.893Z,62.40
2022-12-06T11:44:36.337Z,62.35
2022-12-06T11:49:41.745Z,63.17
2022-12-06T11:54:55.098Z,62.94
2022-12-06T12:00:20.675Z,63.18
2022-12-06T12:05:34.353Z,62.76
2022-12-06T12:10:44.309Z,63.14
2022-12-06T12:15:53.247Z,63.05
2022-12-06T12:20:57.705Z,62.64
2022-12-06T12:26:05.142Z,62.39
2022-12-06T12:31:22.365Z,62.41
2022-12-06T12:36:29.269Z,61.94
2022-12-06T12:41:45.795Z,62.30
2022-12-06T12:47:02.594Z,62.07
2022-12-06T12:52:29.411Z,62.35
2022-12-06T12:57:31.516Z,62.11
2022-12-06T13:02:36.305Z,62.39
2022-12-06T13:07:42.377Z,62.72
2022-12-06T13:12:50.414Z,62.26
2022-12-06T13:17:59.953Z,62.52
2022-12-06T13:23:08.585Z,62.36
2022-12-06T13:28:19.000Z,62.82
2022-12-06T13:33:28.015Z,62.60
2022-12-06T13:38:32.622Z,63.00
2022-12-06T13:43:39.572Z,62.46
2022-12-06T13:49:01.621Z,62.95
2022-12-06T13:54:06.458Z,62.68
2022-12-06T13:59:11.276Z,63.05
2022-12-06T14:09:44.964Z,62.52
2022-12-06T14:15:01.643Z,62.75
2022-12-06T14:20:26.390Z,62.69
2022-12-06T14:25:31.594Z,63.16
2022-12-06T14:30:33.949Z,63.01
2022-12-06T14:35:36.849Z,63.38
2022-12-06T14:41:00.980Z,63.21
2022-12-06T14:46:06.554Z,63.09
2022-12-06T14:51:23.213Z,63.39
2022-12-06T14:56:30.389Z,63.53
2022-12-06T15:01:32.366Z,63.91
2022-12-06T15:06:36.532Z,63.54
2022-12-06T15:11:59.841Z,63.55
2022-12-06T15:17:02.992Z,63.06
2022-12-06T15:22:18.744Z,64.18
2022-12-06T15:27:26.753Z,63.46
2022-12-06T15:32:28.629Z,63.91
2022-12-06T15:37:38.855Z,64.28
2022-12-06T15:42:42.081Z,63.59
2022-12-06T15:47:45.065Z,64.17
2022-12-06T15:52:46.878Z,63.30
2022-12-06T15:57:48.747Z,63.63
2022-12-06T16:02:50.618Z,63.67
2022-12-06T16:07:52.546Z,63.52
2022-12-06T16:13:12.889Z,63.60
2022-12-06T16:18:14.907Z,64.29
2022-12-06T16:24:11.435Z,63.94
2022-12-06T16:29:01.008Z,64.93
2022-12-06T16:34:02.868Z,64.81
2022-12-06T16:39:06.680Z,65.04
2022-12-06T16:44:08.562Z,64.07
2022-12-06T16:54:44.929Z,64.46
2022-12-06T16:59:47.363Z,64.61
2022-12-06T17:04:49.159Z,64.86
2022-12-06T17:09:50.998Z,64.38
2022-12-06T17:14:54.486Z,65.24
2022-12-06T17:19:56.509Z,64.92
2022-12-06T17:24:59.954Z,64.32
2022-12-06T17:30:02.094Z,64.06
2022-12-06T17:35:04.473Z,64.14
2022-12-06T17:40:07.684Z,64.05
2022-12-06T17:45:09.999Z,64.43
2022-12-06T17:50:12.030Z,64.28
2022-12-06T17:55:14.801Z,64.87
2022-12-06T18:00:17.139Z,64.96
2022-12-06T18:05:19.124Z,64.49
2022-12-06T18:10:21.138Z,64.83
2022-12-06T18:15:38.432Z,65.22
2022-12-06T18:20:41.296Z,64.93
2022-12-06T18:25:44.035Z,65.49
2022-12-06T18:30:46.040Z,64.98
2022-12-06T18:35:50.340Z,64.98
2022-12-06T18:40:52.414Z,65.10
2022-12-06T18:46:01.354Z,65.76
2022-12-06T18:51:11.169Z,65.94
2022-12-06T18:56:14.826Z,65.62
2022-12-06T19:01:21.987Z,65.06
2022-12-06T19:06:26.496Z,65.14
2022-12-06T19:11:28.793Z,65.17
2022-12-06T19:16:36.507Z,65.68
2022-12-06T19:21:38.604Z,65.65
2022-12-06T19:26:40.513Z,65.94
2022-12-06T19:31:42.794Z,66.20
2022-12-06T19:36:45.236Z,66.48
2022-12-06T19:42:06.231Z,66.65
2022-12-06T19:47:08.179Z,66.07
2022-12-06T19:52:10.188Z,66.41
2022-12-06T19:57:12.015Z,66.94
2022-12-06T20:02:14.053Z,66.26
2022-12-06T20:07:16.011Z,66.39
2022-12-06T20:12:17.857Z,66.83
2022-12-06T20:17:23.673Z,66.43
2022-12-06T20:22:25.694Z,66.64
2022-12-06T20:27:46.189Z,66.17
2022-12-06T20:32:49.352Z,66.09
2022-12-06T20:37:51.556Z,66.73
2022-12-06T20:42:53.376Z,66.48
2022-12-06T20:47:55.202Z,66.34
2022-12-06T20:52:57.018Z,66.08
2022-12-06T20:57:58.960Z,66.46
2022-12-06T21:03:00.933Z,66.82
2022-12-06T21:08:02.888Z,66.81
2022-12-06T21:13:06.265Z,66.44
2022-12-06T21:18:08.249Z,67.05
2022-12-06T21:23:10.092Z,66.64
2022-12-06T21:28:12.071Z,66.43
2022-12-06T21:33:13.889Z,66.58
2022-12-06T21:38:16.987Z,67.08
2022-12-06T21:43:18.827Z,66.62
2022-12-06T21:48:20.666Z,66.75
2022-12-06T21:53:22.507Z,66.62
2022-12-06T21:58:24.581Z,66.78
2022-12-06T22:03:26.476Z,65.85
2022-12-06T22:08:28.291Z,66.61
2022-12-06T22:13:30.208Z,66.80
2022-12-06T22:18:32.586Z,65.94
2022-12-06T22:23:34.761Z,66.96
2022-12-06T22:28:36.735Z,67.06
2022-12-06T22:33:39.086Z,66.31
2022-12-06T22:38:41.061Z,66.99
2022-12-06T22:43:43.195Z,66.58
2022-12-06T22:48:45.564Z,66.97
2022-12-06T22:53:52.136Z,66.77
2022-12-06T22:58:55.584Z,67.66
2022-12-06T23:04:00.129Z,67.08
2022-12-06T23:09:02.659Z,67.20
2022-12-06T23:14:04.767Z,67.00
2022-12-06T23:19:06.615Z,68.09
2022-12-06T23:24:11.936Z,67.83
2022-12-06T23:29:15.737Z,68.48
2022-12-06T23:34:22.592Z,68.04
2022-12-06T23:39:24.720Z,67.00
2022-12-06T23:44:26.490Z,67.21
2022-12-06T23:49:28.331Z,66.84
2022-12-06T23:54:30.090Z,66.76
2022-12-06T23:59:31.944Z,66.69
